sensor_id;sensor_type;location;lat;lon;timestamp;P1;durP1;ratioP1;P2;durP2;ratioP2
69551;SDS011;63774;45.292;11.784;2024-03-29T00:00:24;2.10;;;1.60;;
69551;SDS011;63774;45.292;11.784;2024-03-29T00:02:49;2.50;;;1.90;;
69551;SDS011;63774;45.292;11.784;2024-03-29T00:08:11;2.90;;;1.80;;
69551;SDS011;63774;45.292;11.784;2024-03-29T00:10:37;2.50;;;1.90;;
69551;SDS011;63774;45.292;11.784;2024-03-29T00:13:02;2.60;;;1.70;;
69551;SDS011;63774;45.292;11.784;2024-03-29T00:15:27;3.80;;;1.60;;
69551;SDS011;63774;45.292;11.784;2024-03-29T00:17:52;2.70;;;1.60;;
69551;SDS011;63774;45.292;11.784;2024-03-29T00:20:18;3.00;;;1.80;;
69551;SDS011;63774;45.292;11.784;2024-03-29T00:22:45;2.20;;;1.40;;
69551;SDS011;63774;45.292;11.784;2024-03-29T00:25:10;2.40;;;1.60;;
69551;SDS011;63774;45.292;11.784;2024-03-29T00:27:35;2.40;;;1.60;;
69551;SDS011;63774;45.292;11.784;2024-03-29T00:30:01;2.50;;;1.40;;
69551;SDS011;63774;45.292;11.784;2024-03-29T00:32:26;2.10;;;1.30;;
69551;SDS011;63774;45.292;11.784;2024-03-29T00:34:52;3.50;;;1.70;;
69551;SDS011;63774;45.292;11.784;2024-03-29T00:37:17;3.20;;;1.70;;
69551;SDS011;63774;45.292;11.784;2024-03-29T00:39:43;2.30;;;1.70;;
69551;SDS011;63774;45.292;11.784;2024-03-29T00:42:08;2.30;;;1.50;;
69551;SDS011;63774;45.292;11.784;2024-03-29T00:44:35;2.10;;;1.60;;
69551;SDS011;63774;45.292;11.784;2024-03-29T00:47:03;2.70;;;1.80;;
69551;SDS011;63774;45.292;11.784;2024-03-29T00:49:29;2.70;;;1.50;;
69551;SDS011;63774;45.292;11.784;2024-03-29T00:51:55;2.50;;;1.70;;
69551;SDS011;63774;45.292;11.784;2024-03-29T00:54:20;2.80;;;1.60;;
69551;SDS011;63774;45.292;11.784;2024-03-29T00:56:45;3.20;;;1.70;;
69551;SDS011;63774;45.292;11.784;2024-03-29T00:59:11;3.60;;;1.50;;
69551;SDS011;63774;45.292;11.784;2024-03-29T01:01:36;3.10;;;1.70;;
69551;SDS011;63774;45.292;11.784;2024-03-29T01:04:01;2.60;;;1.70;;
69551;SDS011;63774;45.292;11.784;2024-03-29T01:06:27;3.40;;;1.80;;
69551;SDS011;63774;45.292;11.784;2024-03-29T01:08:52;2.80;;;1.60;;
69551;SDS011;63774;45.292;11.784;2024-03-29T01:11:17;2.40;;;1.70;;
69551;SDS011;63774;45.292;11.784;2024-03-29T01:13:42;2.50;;;1.60;;
69551;SDS011;63774;45.292;11.784;2024-03-29T01:16:08;2.30;;;1.70;;
69551;SDS011;63774;45.292;11.784;2024-03-29T01:18:33;2.20;;;1.70;;
69551;SDS011;63774;45.292;11.784;2024-03-29T01:20:58;2.30;;;1.60;;
69551;SDS011;63774;45.292;11.784;2024-03-29T01:23:24;2.70;;;1.80;;
69551;SDS011;63774;45.292;11.784;2024-03-29T01:25:49;3.60;;;2.00;;
69551;SDS011;63774;45.292;11.784;2024-03-29T01:28:14;2.20;;;1.40;;
69551;SDS011;63774;45.292;11.784;2024-03-29T01:30:40;2.40;;;1.70;;
69551;SDS011;63774;45.292;11.784;2024-03-29T01:33:05;3.30;;;1.80;;
69551;SDS011;63774;45.292;11.784;2024-03-29T01:35:30;2.20;;;1.70;;
69551;SDS011;63774;45.292;11.784;2024-03-29T01:37:55;2.20;;;1.70;;
69551;SDS011;63774;45.292;11.784;2024-03-29T01:40:21;2.90;;;2.00;;
69551;SDS011;63774;45.292;11.784;2024-03-29T01:42:46;3.40;;;1.60;;
69551;SDS011;63774;45.292;11.784;2024-03-29T01:45:11;2.50;;;1.60;;
69551;SDS011;63774;45.292;11.784;2024-03-29T01:47:37;2.90;;;1.80;;
69551;SDS011;63774;45.292;11.784;2024-03-29T01:50:02;2.40;;;1.60;;
69551;SDS011;63774;45.292;11.784;2024-03-29T01:52:28;3.50;;;1.60;;
69551;SDS011;63774;45.292;11.784;2024-03-29T01:54:54;3.50;;;1.80;;
69551;SDS011;63774;45.292;11.784;2024-03-29T01:57:19;2.60;;;1.90;;
69551;SDS011;63774;45.292;11.784;2024-03-29T01:59:45;2.70;;;2.00;;
69551;SDS011;63774;45.292;11.784;2024-03-29T02:02:11;2.20;;;1.70;;
69551;SDS011;63774;45.292;11.784;2024-03-29T02:04:36;2.20;;;1.70;;
69551;SDS011;63774;45.292;11.784;2024-03-29T02:07:02;4.00;;;2.00;;
69551;SDS011;63774;45.292;11.784;2024-03-29T02:09:28;2.40;;;1.80;;
69551;SDS011;63774;45.292;11.784;2024-03-29T02:11:54;2.70;;;1.60;;
69551;SDS011;63774;45.292;11.784;2024-03-29T02:14:19;2.90;;;2.00;;
69551;SDS011;63774;45.292;11.784;2024-03-29T02:16:44;3.10;;;1.90;;
69551;SDS011;63774;45.292;11.784;2024-03-29T02:19:09;3.80;;;2.20;;
69551;SDS011;63774;45.292;11.784;2024-03-29T02:21:36;6.40;;;1.90;;
69551;SDS011;63774;45.292;11.784;2024-03-29T02:24:06;3.90;;;2.40;;
69551;SDS011;63774;45.292;11.784;2024-03-29T02:26:32;2.30;;;1.90;;
69551;SDS011;63774;45.292;11.784;2024-03-29T02:29:00;2.40;;;2.00;;
69551;SDS011;63774;45.292;11.784;2024-03-29T02:31:26;3.40;;;1.90;;
69551;SDS011;63774;45.292;11.784;2024-03-29T02:33:51;3.50;;;2.20;;
69551;SDS011;63774;45.292;11.784;2024-03-29T02:36:16;2.80;;;2.10;;
69551;SDS011;63774;45.292;11.784;2024-03-29T02:38:42;4.30;;;2.00;;
69551;SDS011;63774;45.292;11.784;2024-03-29T02:41:07;3.50;;;2.20;;
69551;SDS011;63774;45.292;11.784;2024-03-29T02:43:32;2.30;;;1.90;;
69551;SDS011;63774;45.292;11.784;2024-03-29T02:45:57;3.40;;;2.20;;
69551;SDS011;63774;45.292;11.784;2024-03-29T02:48:23;3.60;;;2.00;;
69551;SDS011;63774;45.292;11.784;2024-03-29T02:50:48;3.10;;;2.30;;
69551;SDS011;63774;45.292;11.784;2024-03-29T02:53:13;3.30;;;2.10;;
69551;SDS011;63774;45.292;11.784;2024-03-29T02:55:40;3.30;;;1.90;;
69551;SDS011;63774;45.292;11.784;2024-03-29T02:58:05;3.80;;;2.40;;
69551;SDS011;63774;45.292;11.784;2024-03-29T03:00:31;3.40;;;2.30;;
69551;SDS011;63774;45.292;11.784;2024-03-29T03:02:56;3.40;;;2.20;;
69551;SDS011;63774;45.292;11.784;2024-03-29T03:05:21;3.40;;;2.30;;
69551;SDS011;63774;45.292;11.784;2024-03-29T03:07:47;3.00;;;2.10;;
69551;SDS011;63774;45.292;11.784;2024-03-29T03:10:30;3.50;;;2.40;;
69551;SDS011;63774;45.292;11.784;2024-03-29T03:13:15;3.30;;;2.20;;
69551;SDS011;63774;45.292;11.784;2024-03-29T03:15:40;2.80;;;2.30;;
69551;SDS011;63774;45.292;11.784;2024-03-29T03:18:05;4.80;;;2.60;;
69551;SDS011;63774;45.292;11.784;2024-03-29T03:20:30;3.00;;;2.40;;
69551;SDS011;63774;45.292;11.784;2024-03-29T03:22:57;3.50;;;2.30;;
69551;SDS011;63774;45.292;11.784;2024-03-29T03:25:24;3.30;;;2.20;;
69551;SDS011;63774;45.292;11.784;2024-03-29T03:27:49;3.80;;;2.40;;
69551;SDS011;63774;45.292;11.784;2024-03-29T03:30:15;2.70;;;2.10;;
69551;SDS011;63774;45.292;11.784;2024-03-29T03:32:40;3.20;;;2.30;;
69551;SDS011;63774;45.292;11.784;2024-03-29T03:35:05;4.20;;;2.60;;
69551;SDS011;63774;45.292;11.784;2024-03-29T03:37:31;3.70;;;2.60;;
69551;SDS011;63774;45.292;11.784;2024-03-29T03:39:56;4.60;;;2.50;;
69551;SDS011;63774;45.292;11.784;2024-03-29T03:42:22;4.40;;;2.40;;
69551;SDS011;63774;45.292;11.784;2024-03-29T03:44:47;2.90;;;2.50;;
69551;SDS011;63774;45.292;11.784;2024-03-29T03:47:12;3.50;;;2.50;;
69551;SDS011;63774;45.292;11.784;2024-03-29T03:49:37;3.20;;;2.30;;
69551;SDS011;63774;45.292;11.784;2024-03-29T03:52:03;4.10;;;2.40;;
69551;SDS011;63774;45.292;11.784;2024-03-29T03:54:28;3.50;;;2.40;;
69551;SDS011;63774;45.292;11.784;2024-03-29T03:56:54;3.00;;;2.30;;
69551;SDS011;63774;45.292;11.784;2024-03-29T03:59:19;4.20;;;2.80;;
69551;SDS011;63774;45.292;11.784;2024-03-29T04:01:45;3.60;;;2.30;;
69551;SDS011;63774;45.292;11.784;2024-03-29T04:04:10;4.00;;;2.90;;
69551;SDS011;63774;45.292;11.784;2024-03-29T04:06:35;5.10;;;2.60;;
69551;SDS011;63774;45.292;11.784;2024-03-29T04:09:00;3.50;;;2.60;;
69551;SDS011;63774;45.292;11.784;2024-03-29T04:11:26;3.70;;;2.60;;
69551;SDS011;63774;45.292;11.784;2024-03-29T04:13:52;4.10;;;2.60;;
69551;SDS011;63774;45.292;11.784;2024-03-29T04:16:17;3.70;;;2.60;;
69551;SDS011;63774;45.292;11.784;2024-03-29T04:18:42;3.40;;;2.50;;
69551;SDS011;63774;45.292;11.784;2024-03-29T04:21:08;3.70;;;2.70;;
69551;SDS011;63774;45.292;11.784;2024-03-29T04:23:33;3.70;;;2.50;;
69551;SDS011;63774;45.292;11.784;2024-03-29T04:25:59;3.60;;;2.70;;
69551;SDS011;63774;45.292;11.784;2024-03-29T04:28:25;3.10;;;2.40;;
69551;SDS011;63774;45.292;11.784;2024-03-29T04:30:55;5.10;;;2.90;;
69551;SDS011;63774;45.292;11.784;2024-03-29T04:33:20;3.70;;;2.70;;
69551;SDS011;63774;45.292;11.784;2024-03-29T04:38:20;3.50;;;2.50;;
69551;SDS011;63774;45.292;11.784;2024-03-29T04:40:45;4.00;;;2.60;;
69551;SDS011;63774;45.292;11.784;2024-03-29T04:43:11;3.80;;;2.60;;
69551;SDS011;63774;45.292;11.784;2024-03-29T04:45:36;3.30;;;2.50;;
69551;SDS011;63774;45.292;11.784;2024-03-29T04:48:01;3.60;;;2.70;;
69551;SDS011;63774;45.292;11.784;2024-03-29T04:50:27;4.10;;;2.50;;
69551;SDS011;63774;45.292;11.784;2024-03-29T04:52:53;3.50;;;2.50;;
69551;SDS011;63774;45.292;11.784;2024-03-29T04:55:18;3.90;;;2.70;;
69551;SDS011;63774;45.292;11.784;2024-03-29T04:57:43;3.40;;;2.70;;
69551;SDS011;63774;45.292;11.784;2024-03-29T05:00:09;4.30;;;2.60;;
69551;SDS011;63774;45.292;11.784;2024-03-29T05:02:34;3.20;;;2.40;;
69551;SDS011;63774;45.292;11.784;2024-03-29T05:04:59;3.90;;;3.00;;
69551;SDS011;63774;45.292;11.784;2024-03-29T05:07:25;4.30;;;2.90;;
69551;SDS011;63774;45.292;11.784;2024-03-29T05:09:50;4.20;;;3.00;;
69551;SDS011;63774;45.292;11.784;2024-03-29T05:12:15;3.60;;;2.80;;
69551;SDS011;63774;45.292;11.784;2024-03-29T05:14:41;4.60;;;3.00;;
69551;SDS011;63774;45.292;11.784;2024-03-29T05:17:06;4.90;;;3.30;;
69551;SDS011;63774;45.292;11.784;2024-03-29T05:19:31;5.70;;;3.10;;
69551;SDS011;63774;45.292;11.784;2024-03-29T05:21:57;3.70;;;2.80;;
69551;SDS011;63774;45.292;11.784;2024-03-29T05:24:22;4.10;;;3.10;;
69551;SDS011;63774;45.292;11.784;2024-03-29T05:26:47;4.70;;;2.90;;
69551;SDS011;63774;45.292;11.784;2024-03-29T05:29:12;4.60;;;3.10;;
69551;SDS011;63774;45.292;11.784;2024-03-29T05:31:38;4.50;;;3.20;;
69551;SDS011;63774;45.292;11.784;2024-03-29T05:34:03;3.70;;;3.10;;
69551;SDS011;63774;45.292;11.784;2024-03-29T05:36:28;4.00;;;2.80;;
69551;SDS011;63774;45.292;11.784;2024-03-29T05:38:54;4.60;;;3.00;;
69551;SDS011;63774;45.292;11.784;2024-03-29T05:41:19;4.50;;;3.10;;
69551;SDS011;63774;45.292;11.784;2024-03-29T05:43:44;4.20;;;2.90;;
69551;SDS011;63774;45.292;11.784;2024-03-29T05:46:10;4.60;;;3.10;;
69551;SDS011;63774;45.292;11.784;2024-03-29T05:48:35;3.90;;;2.80;;
69551;SDS011;63774;45.292;11.784;2024-03-29T05:51:00;4.30;;;3.30;;
69551;SDS011;63774;45.292;11.784;2024-03-29T05:53:26;4.50;;;3.30;;
69551;SDS011;63774;45.292;11.784;2024-03-29T05:55:51;4.90;;;3.60;;
69551;SDS011;63774;45.292;11.784;2024-03-29T05:58:16;5.20;;;3.30;;
69551;SDS011;63774;45.292;11.784;2024-03-29T06:00:46;5.80;;;3.60;;
69551;SDS011;63774;45.292;11.784;2024-03-29T06:03:11;4.40;;;3.40;;
69551;SDS011;63774;45.292;11.784;2024-03-29T06:05:36;4.60;;;3.30;;
69551;SDS011;63774;45.292;11.784;2024-03-29T06:08:02;4.90;;;3.30;;
69551;SDS011;63774;45.292;11.784;2024-03-29T06:10:27;5.10;;;3.60;;
69551;SDS011;63774;45.292;11.784;2024-03-29T06:12:52;5.00;;;3.60;;
69551;SDS011;63774;45.292;11.784;2024-03-29T06:15:18;4.70;;;3.40;;
69551;SDS011;63774;45.292;11.784;2024-03-29T06:18:19;4.80;;;3.60;;
69551;SDS011;63774;45.292;11.784;2024-03-29T06:20:45;5.60;;;3.80;;
69551;SDS011;63774;45.292;11.784;2024-03-29T06:23:10;4.70;;;3.30;;
69551;SDS011;63774;45.292;11.784;2024-03-29T06:25:35;5.20;;;3.30;;
69551;SDS011;63774;45.292;11.784;2024-03-29T06:28:01;6.10;;;3.70;;
69551;SDS011;63774;45.292;11.784;2024-03-29T06:30:26;5.00;;;3.70;;
69551;SDS011;63774;45.292;11.784;2024-03-29T06:32:52;5.60;;;3.90;;
69551;SDS011;63774;45.292;11.784;2024-03-29T06:35:17;5.50;;;3.70;;
69551;SDS011;63774;45.292;11.784;2024-03-29T06:37:45;4.90;;;3.60;;
69551;SDS011;63774;45.292;11.784;2024-03-29T06:40:10;4.90;;;3.90;;
69551;SDS011;63774;45.292;11.784;2024-03-29T06:42:36;5.80;;;4.00;;
69551;SDS011;63774;45.292;11.784;2024-03-29T06:45:01;4.60;;;3.40;;
69551;SDS011;63774;45.292;11.784;2024-03-29T06:47:27;5.00;;;3.70;;
69551;SDS011;63774;45.292;11.784;2024-03-29T06:49:53;5.40;;;4.20;;
69551;SDS011;63774;45.292;11.784;2024-03-29T06:52:18;5.60;;;3.80;;
69551;SDS011;63774;45.292;11.784;2024-03-29T06:54:43;7.20;;;4.00;;
69551;SDS011;63774;45.292;11.784;2024-03-29T06:57:09;5.70;;;4.10;;
69551;SDS011;63774;45.292;11.784;2024-03-29T06:59:35;5.60;;;3.90;;
69551;SDS011;63774;45.292;11.784;2024-03-29T07:02:00;5.60;;;4.00;;
69551;SDS011;63774;45.292;11.784;2024-03-29T07:04:26;5.60;;;3.90;;
69551;SDS011;63774;45.292;11.784;2024-03-29T07:06:53;7.40;;;4.10;;
69551;SDS011;63774;45.292;11.784;2024-03-29T07:09:19;5.20;;;4.00;;
69551;SDS011;63774;45.292;11.784;2024-03-29T07:11:47;5.60;;;4.20;;
69551;SDS011;63774;45.292;11.784;2024-03-29T07:14:16;5.40;;;3.80;;
69551;SDS011;63774;45.292;11.784;2024-03-29T07:16:42;5.60;;;4.00;;
69551;SDS011;63774;45.292;11.784;2024-03-29T07:19:07;5.80;;;4.30;;
69551;SDS011;63774;45.292;11.784;2024-03-29T07:21:33;7.20;;;4.30;;
69551;SDS011;63774;45.292;11.784;2024-03-29T07:23:58;6.30;;;3.90;;
69551;SDS011;63774;45.292;11.784;2024-03-29T07:26:23;6.10;;;4.50;;
69551;SDS011;63774;45.292;11.784;2024-03-29T07:28:49;5.40;;;3.70;;
69551;SDS011;63774;45.292;11.784;2024-03-29T07:31:14;6.60;;;4.30;;
69551;SDS011;63774;45.292;11.784;2024-03-29T07:33:39;5.50;;;4.00;;
69551;SDS011;63774;45.292;11.784;2024-03-29T07:36:05;5.90;;;4.30;;
69551;SDS011;63774;45.292;11.784;2024-03-29T07:38:31;6.40;;;4.10;;
69551;SDS011;63774;45.292;11.784;2024-03-29T07:40:56;6.30;;;4.40;;
69551;SDS011;63774;45.292;11.784;2024-03-29T07:43:22;6.30;;;4.10;;
69551;SDS011;63774;45.292;11.784;2024-03-29T07:45:47;5.00;;;3.50;;
69551;SDS011;63774;45.292;11.784;2024-03-29T07:48:13;5.90;;;3.90;;
69551;SDS011;63774;45.292;11.784;2024-03-29T07:50:39;5.30;;;3.70;;
69551;SDS011;63774;45.292;11.784;2024-03-29T07:53:04;5.80;;;3.80;;
69551;SDS011;63774;45.292;11.784;2024-03-29T07:55:30;5.50;;;3.70;;
69551;SDS011;63774;45.292;11.784;2024-03-29T07:57:55;6.70;;;3.90;;
69551;SDS011;63774;45.292;11.784;2024-03-29T08:00:21;5.40;;;4.10;;
69551;SDS011;63774;45.292;11.784;2024-03-29T08:02:46;5.20;;;3.90;;
69551;SDS011;63774;45.292;11.784;2024-03-29T08:05:11;6.60;;;3.90;;
69551;SDS011;63774;45.292;11.784;2024-03-29T08:07:37;5.50;;;3.80;;
69551;SDS011;63774;45.292;11.784;2024-03-29T08:10:02;5.80;;;3.60;;
69551;SDS011;63774;45.292;11.784;2024-03-29T08:12:27;7.00;;;3.40;;
69551;SDS011;63774;45.292;11.784;2024-03-29T08:14:53;4.00;;;3.10;;
69551;SDS011;63774;45.292;11.784;2024-03-29T08:17:18;5.20;;;3.40;;
69551;SDS011;63774;45.292;11.784;2024-03-29T08:19:43;4.40;;;3.30;;
69551;SDS011;63774;45.292;11.784;2024-03-29T08:22:09;5.00;;;3.40;;
69551;SDS011;63774;45.292;11.784;2024-03-29T08:24:37;4.80;;;3.40;;
69551;SDS011;63774;45.292;11.784;2024-03-29T08:27:02;5.10;;;3.40;;
69551;SDS011;63774;45.292;11.784;2024-03-29T08:29:28;5.50;;;3.40;;
69551;SDS011;63774;45.292;11.784;2024-03-29T08:31:53;5.40;;;3.70;;
69551;SDS011;63774;45.292;11.784;2024-03-29T08:34:18;4.60;;;3.40;;
69551;SDS011;63774;45.292;11.784;2024-03-29T08:36:44;4.80;;;3.30;;
69551;SDS011;63774;45.292;11.784;2024-03-29T08:39:09;4.60;;;3.10;;
69551;SDS011;63774;45.292;11.784;2024-03-29T08:41:36;4.30;;;3.30;;
69551;SDS011;63774;45.292;11.784;2024-03-29T08:44:01;4.60;;;3.20;;
69551;SDS011;63774;45.292;11.784;2024-03-29T08:46:27;5.90;;;3.30;;
69551;SDS011;63774;45.292;11.784;2024-03-29T08:48:53;5.50;;;3.60;;
69551;SDS011;63774;45.292;11.784;2024-03-29T08:51:20;6.30;;;3.30;;
69551;SDS011;63774;45.292;11.784;2024-03-29T08:53:45;5.80;;;3.20;;
69551;SDS011;63774;45.292;11.784;2024-03-29T08:56:11;5.00;;;3.40;;
69551;SDS011;63774;45.292;11.784;2024-03-29T08:58:37;5.00;;;3.40;;
69551;SDS011;63774;45.292;11.784;2024-03-29T09:01:03;4.40;;;3.20;;
69551;SDS011;63774;45.292;11.784;2024-03-29T09:03:29;4.20;;;3.20;;
69551;SDS011;63774;45.292;11.784;2024-03-29T09:05:54;5.90;;;3.60;;
69551;SDS011;63774;45.292;11.784;2024-03-29T09:08:20;5.20;;;3.10;;
69551;SDS011;63774;45.292;11.784;2024-03-29T09:10:45;5.50;;;3.40;;
69551;SDS011;63774;45.292;11.784;2024-03-29T09:13:10;5.20;;;3.10;;
69551;SDS011;63774;45.292;11.784;2024-03-29T09:15:36;4.90;;;3.10;;
69551;SDS011;63774;45.292;11.784;2024-03-29T09:18:01;5.10;;;3.20;;
69551;SDS011;63774;45.292;11.784;2024-03-29T09:20:34;5.10;;;3.40;;
69551;SDS011;63774;45.292;11.784;2024-03-29T09:23:00;5.50;;;3.20;;
69551;SDS011;63774;45.292;11.784;2024-03-29T09:25:25;4.00;;;3.00;;
69551;SDS011;63774;45.292;11.784;2024-03-29T09:27:50;4.10;;;2.90;;
69551;SDS011;63774;45.292;11.784;2024-03-29T09:30:16;3.30;;;2.50;;
69551;SDS011;63774;45.292;11.784;2024-03-29T09:32:41;5.20;;;3.30;;
69551;SDS011;63774;45.292;11.784;2024-03-29T09:35:06;3.90;;;2.70;;
69551;SDS011;63774;45.292;11.784;2024-03-29T09:37:32;4.40;;;2.80;;
69551;SDS011;63774;45.292;11.784;2024-03-29T09:40:01;4.30;;;2.80;;
69551;SDS011;63774;45.292;11.784;2024-03-29T09:42:26;4.20;;;2.80;;
69551;SDS011;63774;45.292;11.784;2024-03-29T09:44:55;4.60;;;2.70;;
69551;SDS011;63774;45.292;11.784;2024-03-29T09:47:22;4.10;;;2.70;;
69551;SDS011;63774;45.292;11.784;2024-03-29T09:49:47;4.60;;;3.10;;
69551;SDS011;63774;45.292;11.784;2024-03-29T09:52:15;5.00;;;3.10;;
69551;SDS011;63774;45.292;11.784;2024-03-29T09:54:41;4.70;;;3.10;;
69551;SDS011;63774;45.292;11.784;2024-03-29T09:57:07;4.60;;;3.20;;
69551;SDS011;63774;45.292;11.784;2024-03-29T09:59:32;4.90;;;3.10;;
69551;SDS011;63774;45.292;11.784;2024-03-29T10:01:59;4.30;;;3.00;;
69551;SDS011;63774;45.292;11.784;2024-03-29T10:04:25;4.60;;;3.20;;
69551;SDS011;63774;45.292;11.784;2024-03-29T10:06:53;5.20;;;3.00;;
69551;SDS011;63774;45.292;11.784;2024-03-29T10:09:19;4.40;;;3.30;;
69551;SDS011;63774;45.292;11.784;2024-03-29T10:11:45;4.50;;;2.90;;
69551;SDS011;63774;45.292;11.784;2024-03-29T10:14:10;5.70;;;2.90;;
69551;SDS011;63774;45.292;11.784;2024-03-29T10:16:35;5.50;;;2.90;;
69551;SDS011;63774;45.292;11.784;2024-03-29T10:19:01;3.60;;;2.60;;
69551;SDS011;63774;45.292;11.784;2024-03-29T10:21:27;4.40;;;2.90;;
69551;SDS011;63774;45.292;11.784;2024-03-29T10:23:52;4.90;;;2.70;;
69551;SDS011;63774;45.292;11.784;2024-03-29T10:26:18;4.20;;;2.60;;
69551;SDS011;63774;45.292;11.784;2024-03-29T10:28:43;4.30;;;2.80;;
69551;SDS011;63774;45.292;11.784;2024-03-29T10:31:09;4.50;;;2.80;;
69551;SDS011;63774;45.292;11.784;2024-03-29T10:33:34;4.00;;;2.80;;
69551;SDS011;63774;45.292;11.784;2024-03-29T10:36:00;4.00;;;2.90;;
69551;SDS011;63774;45.292;11.784;2024-03-29T10:38:26;4.50;;;2.80;;
69551;SDS011;63774;45.292;11.784;2024-03-29T10:40:51;4.70;;;2.80;;
69551;SDS011;63774;45.292;11.784;2024-03-29T10:43:17;4.30;;;2.60;;
69551;SDS011;63774;45.292;11.784;2024-03-29T10:45:44;5.50;;;2.70;;
69551;SDS011;63774;45.292;11.784;2024-03-29T10:48:10;4.00;;;2.70;;
69551;SDS011;63774;45.292;11.784;2024-03-29T10:50:35;4.90;;;2.70;;
69551;SDS011;63774;45.292;11.784;2024-03-29T10:53:01;5.30;;;3.00;;
69551;SDS011;63774;45.292;11.784;2024-03-29T10:55:32;4.30;;;2.70;;
69551;SDS011;63774;45.292;11.784;2024-03-29T10:57:58;5.20;;;2.70;;
69551;SDS011;63774;45.292;11.784;2024-03-29T11:00:25;4.70;;;2.70;;
69551;SDS011;63774;45.292;11.784;2024-03-29T11:02:54;5.20;;;2.50;;
69551;SDS011;63774;45.292;11.784;2024-03-29T11:05:22;4.40;;;2.60;;
69551;SDS011;63774;45.292;11.784;2024-03-29T11:07:48;4.10;;;2.70;;
69551;SDS011;63774;45.292;11.784;2024-03-29T11:10:24;4.30;;;2.40;;
69551;SDS011;63774;45.292;11.784;2024-03-29T11:13:12;4.50;;;2.60;;
69551;SDS011;63774;45.292;11.784;2024-03-29T11:15:38;3.10;;;2.40;;
69551;SDS011;63774;45.292;11.784;2024-03-29T11:18:05;3.50;;;2.20;;
69551;SDS011;63774;45.292;11.784;2024-03-29T11:20:32;3.90;;;2.70;;
69551;SDS011;63774;45.292;11.784;2024-03-29T11:23:09;2.90;;;2.20;;
69551;SDS011;63774;45.292;11.784;2024-03-29T11:28:05;3.90;;;2.20;;
69551;SDS011;63774;45.292;11.784;2024-03-29T11:30:38;3.30;;;2.40;;
69551;SDS011;63774;45.292;11.784;2024-03-29T11:33:04;4.20;;;2.50;;
69551;SDS011;63774;45.292;11.784;2024-03-29T11:35:29;3.10;;;2.10;;
69551;SDS011;63774;45.292;11.784;2024-03-29T11:38:01;3.50;;;2.10;;
69551;SDS011;63774;45.292;11.784;2024-03-29T11:40:29;3.20;;;2.10;;
69551;SDS011;63774;45.292;11.784;2024-03-29T11:42:55;3.80;;;2.30;;
69551;SDS011;63774;45.292;11.784;2024-03-29T11:45:20;4.10;;;2.40;;
69551;SDS011;63774;45.292;11.784;2024-03-29T11:47:47;5.80;;;2.60;;
69551;SDS011;63774;45.292;11.784;2024-03-29T11:50:12;7.00;;;2.80;;
69551;SDS011;63774;45.292;11.784;2024-03-29T11:52:39;7.70;;;2.90;;
69551;SDS011;63774;45.292;11.784;2024-03-29T11:55:04;12.40;;;2.80;;
69551;SDS011;63774;45.292;11.784;2024-03-29T11:57:30;6.70;;;3.30;;
69551;SDS011;63774;45.292;11.784;2024-03-29T11:59:56;8.80;;;2.70;;
69551;SDS011;63774;45.292;11.784;2024-03-29T12:02:21;5.90;;;2.60;;
69551;SDS011;63774;45.292;11.784;2024-03-29T12:04:46;6.40;;;2.50;;
69551;SDS011;63774;45.292;11.784;2024-03-29T12:07:12;5.40;;;2.50;;
69551;SDS011;63774;45.292;11.784;2024-03-29T12:09:37;5.70;;;2.60;;
69551;SDS011;63774;45.292;11.784;2024-03-29T12:12:06;5.80;;;2.80;;
69551;SDS011;63774;45.292;11.784;2024-03-29T12:14:34;8.50;;;3.30;;
69551;SDS011;63774;45.292;11.784;2024-03-29T12:17:08;6.80;;;2.50;;
69551;SDS011;63774;45.292;11.784;2024-03-29T12:19:33;8.40;;;2.60;;
69551;SDS011;63774;45.292;11.784;2024-03-29T12:22:02;6.70;;;2.40;;
69551;SDS011;63774;45.292;11.784;2024-03-29T12:24:27;4.20;;;2.20;;
69551;SDS011;63774;45.292;11.784;2024-03-29T12:26:53;4.10;;;2.10;;
69551;SDS011;63774;45.292;11.784;2024-03-29T12:29:18;4.50;;;2.10;;
69551;SDS011;63774;45.292;11.784;2024-03-29T12:31:43;4.50;;;2.10;;
69551;SDS011;63774;45.292;11.784;2024-03-29T12:34:09;6.10;;;2.30;;
69551;SDS011;63774;45.292;11.784;2024-03-29T12:36:34;4.10;;;2.40;;
69551;SDS011;63774;45.292;11.784;2024-03-29T12:39:00;4.30;;;2.30;;
69551;SDS011;63774;45.292;11.784;2024-03-29T12:41:31;7.00;;;2.20;;
69551;SDS011;63774;45.292;11.784;2024-03-29T12:43:56;4.80;;;2.30;;
69551;SDS011;63774;45.292;11.784;2024-03-29T12:46:22;5.90;;;2.10;;
69551;SDS011;63774;45.292;11.784;2024-03-29T12:48:47;6.20;;;2.00;;
69551;SDS011;63774;45.292;11.784;2024-03-29T12:51:12;3.70;;;1.90;;
69551;SDS011;63774;45.292;11.784;2024-03-29T12:53:39;5.90;;;2.00;;
69551;SDS011;63774;45.292;11.784;2024-03-29T12:56:04;5.00;;;2.20;;
69551;SDS011;63774;45.292;11.784;2024-03-29T12:58:30;7.10;;;2.10;;
69551;SDS011;63774;45.292;11.784;2024-03-29T13:00:55;6.60;;;2.20;;
69551;SDS011;63774;45.292;11.784;2024-03-29T13:03:20;5.70;;;2.10;;
69551;SDS011;63774;45.292;11.784;2024-03-29T13:05:46;5.10;;;2.00;;
69551;SDS011;63774;45.292;11.784;2024-03-29T13:08:12;3.70;;;1.70;;
69551;SDS011;63774;45.292;11.784;2024-03-29T13:10:38;3.90;;;2.10;;
69551;SDS011;63774;45.292;11.784;2024-03-29T13:13:04;4.20;;;1.80;;
69551;SDS011;63774;45.292;11.784;2024-03-29T13:15:32;4.70;;;2.10;;
69551;SDS011;63774;45.292;11.784;2024-03-29T13:17:57;5.70;;;2.00;;
69551;SDS011;63774;45.292;11.784;2024-03-29T13:20:24;4.60;;;1.90;;
69551;SDS011;63774;45.292;11.784;2024-03-29T13:22:49;3.00;;;1.90;;
69551;SDS011;63774;45.292;11.784;2024-03-29T13:25:16;4.90;;;2.20;;
69551;SDS011;63774;45.292;11.784;2024-03-29T13:27:41;5.00;;;1.60;;
69551;SDS011;63774;45.292;11.784;2024-03-29T13:30:07;3.90;;;2.30;;
69551;SDS011;63774;45.292;11.784;2024-03-29T13:32:36;4.10;;;1.60;;
69551;SDS011;63774;45.292;11.784;2024-03-29T13:35:02;5.70;;;2.30;;
69551;SDS011;63774;45.292;11.784;2024-03-29T13:37:31;5.00;;;1.60;;
69551;SDS011;63774;45.292;11.784;2024-03-29T13:39:56;4.20;;;2.00;;
69551;SDS011;63774;45.292;11.784;2024-03-29T13:42:21;3.10;;;1.70;;
69551;SDS011;63774;45.292;11.784;2024-03-29T13:44:51;4.20;;;1.80;;
69551;SDS011;63774;45.292;11.784;2024-03-29T13:47:16;8.80;;;2.00;;
69551;SDS011;63774;45.292;11.784;2024-03-29T13:49:42;4.40;;;1.70;;
69551;SDS011;63774;45.292;11.784;2024-03-29T13:52:08;5.60;;;1.70;;
69551;SDS011;63774;45.292;11.784;2024-03-29T13:54:33;2.30;;;1.50;;
69551;SDS011;63774;45.292;11.784;2024-03-29T13:56:59;3.20;;;1.60;;
69551;SDS011;63774;45.292;11.784;2024-03-29T13:59:25;4.20;;;1.70;;
69551;SDS011;63774;45.292;11.784;2024-03-29T14:01:50;4.10;;;1.90;;
69551;SDS011;63774;45.292;11.784;2024-03-29T14:04:15;2.60;;;1.70;;
69551;SDS011;63774;45.292;11.784;2024-03-29T14:06:41;4.60;;;1.80;;
69551;SDS011;63774;45.292;11.784;2024-03-29T14:09:07;3.00;;;1.70;;
69551;SDS011;63774;45.292;11.784;2024-03-29T14:11:32;3.10;;;1.70;;
69551;SDS011;63774;45.292;11.784;2024-03-29T14:13:58;3.30;;;1.60;;
69551;SDS011;63774;45.292;11.784;2024-03-29T14:16:23;3.80;;;1.40;;
69551;SDS011;63774;45.292;11.784;2024-03-29T14:18:49;4.20;;;1.60;;
69551;SDS011;63774;45.292;11.784;2024-03-29T14:21:14;4.40;;;1.90;;
69551;SDS011;63774;45.292;11.784;2024-03-29T14:23:39;4.50;;;1.80;;
69551;SDS011;63774;45.292;11.784;2024-03-29T14:26:05;2.60;;;1.60;;
69551;SDS011;63774;45.292;11.784;2024-03-29T14:28:30;2.60;;;1.60;;
69551;SDS011;63774;45.292;11.784;2024-03-29T14:30:55;4.50;;;1.70;;
69551;SDS011;63774;45.292;11.784;2024-03-29T14:33:21;2.70;;;1.50;;